sensor_id;sensor_type;location;lat;lon;timestamp;pressure;altitude;pressure_sealevel;temperature;humidity
11314;BME280;5712;48.858;9.206;2023-03-30T00:01:10;97786.59;;;14.37;66.56
11314;BME280;5712;48.858;9.206;2023-03-30T00:03:39;97791.63;;;14.40;66.84
11314;BME280;5712;48.858;9.206;2023-03-30T00:06:07;97786.31;;;14.40;66.46
11314;BME280;5712;48.858;9.206;2023-03-30T00:08:35;97780.44;;;14.36;66.62
11314;BME280;5712;48.858;9.206;2023-03-30T00:11:03;97783.25;;;14.35;65.76
11314;BME280;5712;48.858;9.206;2023-03-30T00:13:31;97781.00;;;14.40;65.85
11314;BME280;5712;48.858;9.206;2023-03-30T00:15:59;97786.31;;;14.40;65.70
11314;BME280;5712;48.858;9.206;2023-03-30T00:18:26;97777.50;;;14.39;65.67
11314;BME280;5712;48.858;9.206;2023-03-30T00:20:54;97777.94;;;14.35;66.13
11314;BME280;5712;48.858;9.206;2023-03-30T00:23:21;97777.94;;;14.35;66.73
11314;BME280;5712;48.858;9.206;2023-03-30T00:25:47;97778.19;;;14.32;66.52
11314;BME280;5712;48.858;9.206;2023-03-30T00:28:14;97773.16;;;14.29;66.94
11314;BME280;5712;48.858;9.206;2023-03-30T00:30:41;97776.22;;;14.24;66.67
11314;BME280;5712;48.858;9.206;2023-03-30T00:33:09;97758.72;;;14.22;66.48
11314;BME280;5712;48.858;9.206;2023-03-30T00:35:35;97764.03;;;14.22;66.62
11314;BME280;5712;48.858;9.206;2023-03-30T00:38:01;97753.69;;;14.19;66.78
11314;BME280;5712;48.858;9.206;2023-03-30T00:40:29;97747.38;;;14.20;66.50
11314;BME280;5712;48.858;9.206;2023-03-30T00:42:57;97737.19;;;14.25;66.08
11314;BME280;5712;48.858;9.206;2023-03-30T00:45:25;97735.94;;;14.29;65.67
11314;BME280;5712;48.858;9.206;2023-03-30T00:47:57;97728.38;;;14.34;65.18
11314;BME280;5712;48.858;9.206;2023-03-30T00:50:31;97729.09;;;14.36;65.69
11314;BME280;5712;48.858;9.206;2023-03-30T00:53:02;97728.38;;;14.43;65.19
11314;BME280;5712;48.858;9.206;2023-03-30T00:55:34;97721.94;;;14.46;65.43
11314;BME280;5712;48.858;9.206;2023-03-30T00:58:03;97724.75;;;14.44;65.75
11314;BME280;5712;48.858;9.206;2023-03-30T01:00:30;97713.53;;;14.41;65.87
11314;BME280;5712;48.858;9.206;2023-03-30T01:03:00;97721.81;;;14.38;66.01
11314;BME280;5712;48.858;9.206;2023-03-30T01:05:29;97711.88;;;14.40;65.89
11314;BME280;5712;48.858;9.206;2023-03-30T01:07:57;97704.59;;;14.42;65.56
11314;BME280;5712;48.858;9.206;2023-03-30T01:10:23;97698.72;;;14.48;65.35
11314;BME280;5712;48.858;9.206;2023-03-30T01:12:50;97693.97;;;14.42;65.60
11314;BME280;5712;48.858;9.206;2023-03-30T01:15:18;97700.25;;;14.41;65.63
11314;BME280;5712;48.858;9.206;2023-03-30T01:17:55;97708.22;;;14.41;65.90
11314;BME280;5712;48.858;9.206;2023-03-30T01:20:45;97682.63;;;14.49;65.60
11314;BME280;5712;48.858;9.206;2023-03-30T01:23:30;97694.53;;;14.55;65.65
11314;BME280;5712;48.858;9.206;2023-03-30T01:26:31;97698.28;;;14.62;65.97
11314;BME280;5712;48.858;9.206;2023-03-30T01:29:10;97712.56;;;14.61;66.33
11314;BME280;5712;48.858;9.206;2023-03-30T01:37:46;97775.69;;;14.59;71.57
11314;BME280;5712;48.858;9.206;2023-03-30T01:40:19;97765.34;;;14.56;72.50
11314;BME280;5712;48.858;9.206;2023-03-30T01:42:50;97771.22;;;14.50;73.71
11314;BME280;5712;48.858;9.206;2023-03-30T01:45:26;97756.38;;;14.38;76.80
11314;BME280;5712;48.858;9.206;2023-03-30T01:47:59;97752.16;;;14.26;76.89
11314;BME280;5712;48.858;9.206;2023-03-30T01:50:36;97742.94;;;14.20;76.94
11314;BME280;5712;48.858;9.206;2023-03-30T01:53:12;97740.06;;;14.12;78.36
11314;BME280;5712;48.858;9.206;2023-03-30T01:55:44;97746.78;;;14.16;77.61
11314;BME280;5712;48.858;9.206;2023-03-30T01:58:17;97747.38;;;14.20;77.87
11314;BME280;5712;48.858;9.206;2023-03-30T02:00:47;97753.97;;;14.25;78.74
11314;BME280;5712;48.858;9.206;2023-03-30T02:03:18;97748.50;;;14.27;78.87
11314;BME280;5712;48.858;9.206;2023-03-30T02:05:48;97764.75;;;14.24;80.10
11314;BME280;5712;48.858;9.206;2023-03-30T02:08:18;97754.63;;;14.18;80.46
11314;BME280;5712;48.858;9.206;2023-03-30T02:10:49;97751.84;;;14.19;80.49
11314;BME280;5712;48.858;9.206;2023-03-30T02:13:18;97762.31;;;14.11;81.78
11314;BME280;5712;48.858;9.206;2023-03-30T02:15:49;97759.66;;;14.11;81.79
11314;BME280;5712;48.858;9.206;2023-03-30T02:18:16;97757.69;;;14.13;82.10
11314;BME280;5712;48.858;9.206;2023-03-30T02:20:44;97764.97;;;14.11;82.13
11314;BME280;5712;48.858;9.206;2023-03-30T02:23:11;97762.44;;;14.10;81.92
11314;BME280;5712;48.858;9.206;2023-03-30T02:25:38;97763.28;;;14.10;81.47
11314;BME280;5712;48.858;9.206;2023-03-30T02:28:07;97777.69;;;14.08;81.92
11314;BME280;5712;48.858;9.206;2023-03-30T02:30:35;97775.34;;;14.14;81.95
11314;BME280;5712;48.858;9.206;2023-03-30T02:33:03;97775.91;;;14.18;81.20
11314;BME280;5712;48.858;9.206;2023-03-30T02:35:45;97773.50;;;14.15;81.29
11314;BME280;5712;48.858;9.206;2023-03-30T02:41:18;97774.78;;;14.11;82.32
11314;BME280;5712;48.858;9.206;2023-03-30T02:43:55;97771.56;;;14.07;81.82
11314;BME280;5712;48.858;9.206;2023-03-30T02:46:42;97767.75;;;14.10;82.49
11314;BME280;5712;48.858;9.206;2023-03-30T02:49:15;97764.38;;;13.98;83.12
11314;BME280;5712;48.858;9.206;2023-03-30T02:51:46;97772.47;;;13.97;83.34
11314;BME280;5712;48.858;9.206;2023-03-30T02:54:22;97776.25;;;14.04;82.14
11314;BME280;5712;48.858;9.206;2023-03-30T02:57:00;97764.03;;;14.22;81.92
11314;BME280;5712;48.858;9.206;2023-03-30T02:59:35;97769.34;;;14.22;84.83
11314;BME280;5712;48.858;9.206;2023-03-30T03:02:05;97758.28;;;14.17;86.74
11314;BME280;5712;48.858;9.206;2023-03-30T03:04:35;97772.38;;;14.17;90.79
11314;BME280;5712;48.858;9.206;2023-03-30T03:07:02;97757.25;;;13.99;93.31
11314;BME280;5712;48.858;9.206;2023-03-30T03:09:29;97728.25;;;13.86;95.32
11314;BME280;5712;48.858;9.206;2023-03-30T03:11:56;97726.13;;;13.71;97.52
11314;BME280;5712;48.858;9.206;2023-03-30T03:14:22;97728.47;;;13.64;98.98
11314;BME280;5712;48.858;9.206;2023-03-30T03:16:52;97737.66;;;13.51;100.00
11314;BME280;5712;48.858;9.206;2023-03-30T03:19:18;97734.81;;;13.43;100.00
11314;BME280;5712;48.858;9.206;2023-03-30T03:21:45;97738.97;;;13.36;100.00
11314;BME280;5712;48.858;9.206;2023-03-30T03:24:12;97727.78;;;13.32;100.00
11314;BME280;5712;48.858;9.206;2023-03-30T03:26:41;97716.88;;;13.26;100.00
11314;BME280;5712;48.858;9.206;2023-03-30T03:29:08;97722.19;;;13.26;100.00
11314;BME280;5712;48.858;9.206;2023-03-30T03:31:34;97727.50;;;13.26;100.00
11314;BME280;5712;48.858;9.206;2023-03-30T03:34:05;97725.38;;;13.20;100.00
11314;BME280;5712;48.858;9.206;2023-03-30T03:36:32;97719.59;;;13.15;100.00
11314;BME280;5712;48.858;9.206;2023-03-30T03:38:58;97717.03;;;13.04;100.00
11314;BME280;5712;48.858;9.206;2023-03-30T03:41:25;97712.00;;;13.01;100.00
11314;BME280;5712;48.858;9.206;2023-03-30T03:43:52;97694.03;;;12.93;100.00
11314;BME280;5712;48.858;9.206;2023-03-30T03:46:18;97700.69;;;12.88;100.00
11314;BME280;5712;48.858;9.206;2023-03-30T03:48:44;97698.72;;;12.80;100.00
11314;BME280;5712;48.858;9.206;2023-03-30T03:51:12;97695.91;;;12.82;100.00
11314;BME280;5712;48.858;9.206;2023-03-30T03:53:39;97704.53;;;12.74;100.00
11314;BME280;5712;48.858;9.206;2023-03-30T03:56:06;97707.31;;;12.73;100.00
11314;BME280;5712;48.858;9.206;2023-03-30T03:58:33;97723.69;;;12.78;100.00
11314;BME280;5712;48.858;9.206;2023-03-30T04:01:00;97726.22;;;12.79;100.00
11314;BME280;5712;48.858;9.206;2023-03-30T04:03:27;97720.75;;;12.81;100.00
11314;BME280;5712;48.858;9.206;2023-03-30T04:05:57;97717.13;;;12.82;100.00
11314;BME280;5712;48.858;9.206;2023-03-30T04:08:25;97708.47;;;12.80;100.00
11314;BME280;5712;48.858;9.206;2023-03-30T04:10:52;97699.53;;;12.81;100.00
11314;BME280;5712;48.858;9.206;2023-03-30T04:13:19;97705.41;;;12.84;100.00
11314;BME280;5712;48.858;9.206;2023-03-30T04:15:45;97685.06;;;12.85;100.00
11314;BME280;5712;48.858;9.206;2023-03-30T04:18:12;97677.78;;;12.87;100.00
11314;BME280;5712;48.858;9.206;2023-03-30T04:20:39;97676.44;;;12.92;100.00
11314;BME280;5712;48.858;9.206;2023-03-30T04:23:06;97663.31;;;12.91;100.00
11314;BME280;5712;48.858;9.206;2023-03-30T04:25:35;97653.22;;;12.85;100.00
11314;BME280;5712;48.858;9.206;2023-03-30T04:28:04;97652.38;;;12.84;100.00
11314;BME280;5712;48.858;9.206;2023-03-30T04:30:30;97632.41;;;12.80;100.00
11314;BME280;5712;48.858;9.206;2023-03-30T04:32:57;97644.81;;;12.80;100.00
11314;BME280;5712;48.858;9.206;2023-03-30T04:35:30;97637.56;;;12.82;100.00
11314;BME280;5712;48.858;9.206;2023-03-30T04:37:56;97630.59;;;12.81;100.00
11314;BME280;5712;48.858;9.206;2023-03-30T04:40:24;97619.97;;;12.81;100.00
11314;BME280;5712;48.858;9.206;2023-03-30T04:42:52;97614.84;;;12.79;100.00
11314;BME280;5712;48.858;9.206;2023-03-30T04:45:19;97614.97;;;12.78;100.00
11314;BME280;5712;48.858;9.206;2023-03-30T04:47:46;97609.66;;;12.78;100.00
11314;BME280;5712;48.858;9.206;2023-03-30T04:50:15;97607.13;;;12.76;100.00
11314;BME280;5712;48.858;9.206;2023-03-30T04:52:42;97593.97;;;12.95;100.00
11314;BME280;5712;48.858;9.206;2023-03-30T04:55:11;97596.03;;;12.92;100.00
11314;BME280;5712;48.858;9.206;2023-03-30T04:57:38;97596.31;;;12.89;100.00
11314;BME280;5712;48.858;9.206;2023-03-30T05:00:09;97609.69;;;12.87;100.00
11314;BME280;5712;48.858;9.206;2023-03-30T05:02:37;97610.78;;;12.85;100.00
11314;BME280;5712;48.858;9.206;2023-03-30T05:05:04;97615.53;;;12.81;100.00
11314;BME280;5712;48.858;9.206;2023-03-30T05:07:31;97616.63;;;12.79;100.00
11314;BME280;5712;48.858;9.206;2023-03-30T05:10:00;97614.69;;;12.81;100.00
11314;BME280;5712;48.858;9.206;2023-03-30T05:12:26;97613.84;;;12.80;100.00
11314;BME280;5712;48.858;9.206;2023-03-30T05:14:53;97622.06;;;12.77;100.00
11314;BME280;5712;48.858;9.206;2023-03-30T05:17:20;97616.09;;;12.85;100.00
11314;BME280;5712;48.858;9.206;2023-03-30T05:19:47;97593.66;;;12.89;100.00
11314;BME280;5712;48.858;9.206;2023-03-30T05:22:14;97585.66;;;12.79;100.00
11314;BME280;5712;48.858;9.206;2023-03-30T05:24:41;97582.41;;;12.76;100.00
11314;BME280;5712;48.858;9.206;2023-03-30T05:27:07;97582.03;;;12.80;100.00
11314;BME280;5712;48.858;9.206;2023-03-30T05:29:34;97590.81;;;12.81;100.00
11314;BME280;5712;48.858;9.206;2023-03-30T05:32:00;97588.31;;;12.79;100.00
11314;BME280;5712;48.858;9.206;2023-03-30T05:34:28;97575.88;;;12.80;100.00
11314;BME280;5712;48.858;9.206;2023-03-30T05:36:55;97563.84;;;12.76;100.00
11314;BME280;5712;48.858;9.206;2023-03-30T05:39:21;97552.00;;;12.80;100.00
11314;BME280;5712;48.858;9.206;2023-03-30T05:41:49;97560.25;;;12.77;100.00
11314;BME280;5712;48.858;9.206;2023-03-30T05:44:15;97561.63;;;12.81;100.00
11314;BME280;5712;48.858;9.206;2023-03-30T05:46:42;97564.03;;;12.84;100.00
11314;BME280;5712;48.858;9.206;2023-03-30T05:49:09;97553.88;;;12.89;100.00
11314;BME280;5712;48.858;9.206;2023-03-30T05:51:36;97562.78;;;12.88;100.00
11314;BME280;5712;48.858;9.206;2023-03-30T05:54:03;97577.13;;;12.85;100.00
11314;BME280;5712;48.858;9.206;2023-03-30T05:56:30;97583.41;;;12.84;100.00
11314;BME280;5712;48.858;9.206;2023-03-30T05:58:57;97593.78;;;12.87;100.00
11314;BME280;5712;48.858;9.206;2023-03-30T06:01:23;97596.31;;;12.89;100.00
11314;BME280;5712;48.858;9.206;2023-03-30T06:03:50;97617.25;;;12.92;100.00
11314;BME280;5712;48.858;9.206;2023-03-30T06:06:16;97629.81;;;12.90;100.00
11314;BME280;5712;48.858;9.206;2023-03-30T06:08:44;97648.38;;;12.90;100.00
11314;BME280;5712;48.858;9.206;2023-03-30T06:11:11;97659.63;;;12.82;100.00
11314;BME280;5712;48.858;9.206;2023-03-30T06:13:38;97670.88;;;12.75;100.00
11314;BME280;5712;48.858;9.206;2023-03-30T06:16:05;97685.41;;;12.71;100.00
11314;BME280;5712;48.858;9.206;2023-03-30T06:18:32;97690.25;;;12.66;100.00
11314;BME280;5712;48.858;9.206;2023-03-30T06:20:58;97704.47;;;12.65;100.00
11314;BME280;5712;48.858;9.206;2023-03-30T06:23:26;97703.28;;;12.58;100.00
11314;BME280;5712;48.858;9.206;2023-03-30T06:25:54;97703.94;;;12.50;100.00
11314;BME280;5712;48.858;9.206;2023-03-30T06:28:22;97691.09;;;12.46;100.00
11314;BME280;5712;48.858;9.206;2023-03-30T06:30:49;97692.28;;;12.42;100.00
11314;BME280;5712;48.858;9.206;2023-03-30T06:33:16;97697.59;;;12.42;100.00
11314;BME280;5712;48.858;9.206;2023-03-30T06:35:44;97699.16;;;12.44;100.00
11314;BME280;5712;48.858;9.206;2023-03-30T06:38:11;97713.88;;;12.58;100.00
11314;BME280;5712;48.858;9.206;2023-03-30T06:40:38;97731.94;;;12.64;100.00
11314;BME280;5712;48.858;9.206;2023-03-30T06:43:13;97740.63;;;12.66;100.00
11314;BME280;5712;48.858;9.206;2023-03-30T06:45:40;97732.16;;;12.72;100.00
11314;BME280;5712;48.858;9.206;2023-03-30T06:48:07;97721.84;;;12.78;100.00
11314;BME280;5712;48.858;9.206;2023-03-30T06:50:34;97725.81;;;12.84;100.00
11314;BME280;5712;48.858;9.206;2023-03-30T06:53:00;97737.13;;;12.86;100.00
11314;BME280;5712;48.858;9.206;2023-03-30T06:55:28;97744.56;;;12.92;100.00
11314;BME280;5712;48.858;9.206;2023-03-30T06:57:55;97761.09;;;12.95;100.00
11314;BME280;5712;48.858;9.206;2023-03-30T07:00:22;97749.63;;;12.95;100.00
11314;BME280;5712;48.858;9.206;2023-03-30T07:02:49;97758.91;;;13.00;100.00
11314;BME280;5712;48.858;9.206;2023-03-30T07:05:16;97782.66;;;13.02;100.00
11314;BME280;5712;48.858;9.206;2023-03-30T07:07:44;97788.13;;;13.10;100.00
11314;BME280;5712;48.858;9.206;2023-03-30T07:10:10;97790.50;;;13.13;100.00
11314;BME280;5712;48.858;9.206;2023-03-30T07:12:37;97790.78;;;13.10;100.00
11314;BME280;5712;48.858;9.206;2023-03-30T07:15:05;97792.97;;;13.05;100.00
11314;BME280;5712;48.858;9.206;2023-03-30T07:17:34;97780.25;;;12.99;100.00
11314;BME280;5712;48.858;9.206;2023-03-30T07:20:02;97787.50;;;12.86;100.00
11314;BME280;5712;48.858;9.206;2023-03-30T07:22:28;97806.41;;;12.72;100.00
11314;BME280;5712;48.858;9.206;2023-03-30T07:24:55;97813.78;;;12.57;100.00
11314;BME280;5712;48.858;9.206;2023-03-30T07:27:23;97810.94;;;12.49;100.00
11314;BME280;5712;48.858;9.206;2023-03-30T07:29:50;97814.09;;;12.43;100.00
11314;BME280;5712;48.858;9.206;2023-03-30T07:32:17;97839.03;;;12.41;100.00
11314;BME280;5712;48.858;9.206;2023-03-30T07:34:45;97840.13;;;12.38;100.00
11314;BME280;5712;48.858;9.206;2023-03-30T07:37:12;97816.88;;;12.31;100.00
11314;BME280;5712;48.858;9.206;2023-03-30T07:39:39;97805.69;;;12.27;100.00
11314;BME280;5712;48.858;9.206;2023-03-30T07:42:05;97791.97;;;12.22;100.00
11314;BME280;5712;48.858;9.206;2023-03-30T07:44:32;97811.88;;;12.17;100.00
11314;BME280;5712;48.858;9.206;2023-03-30T07:46:59;97800.78;;;12.12;100.00
11314;BME280;5712;48.858;9.206;2023-03-30T07:49:28;97789.84;;;12.05;100.00
11314;BME280;5712;48.858;9.206;2023-03-30T07:51:56;97785.63;;;12.03;100.00
11314;BME280;5712;48.858;9.206;2023-03-30T07:54:23;97779.72;;;11.99;100.00
11314;BME280;5712;48.858;9.206;2023-03-30T07:56:50;97781.44;;;12.00;100.00
11314;BME280;5712;48.858;9.206;2023-03-30T07:59:17;97791.88;;;12.02;100.00
11314;BME280;5712;48.858;9.206;2023-03-30T08:01:44;97809.34;;;12.04;100.00
11314;BME280;5712;48.858;9.206;2023-03-30T08:04:14;97809.59;;;12.01;100.00
11314;BME280;5712;48.858;9.206;2023-03-30T08:06:41;97820.06;;;12.03;100.00
11314;BME280;5712;48.858;9.206;2023-03-30T08:09:09;97814.25;;;12.09;100.00
11314;BME280;5712;48.858;9.206;2023-03-30T08:11:36;97824.53;;;12.13;100.00
11314;BME280;5712;48.858;9.206;2023-03-30T08:14:02;97853.50;;;12.15;100.00
11314;BME280;5712;48.858;9.206;2023-03-30T08:16:29;97873.28;;;12.11;100.00
11314;BME280;5712;48.858;9.206;2023-03-30T08:18:56;97875.44;;;12.06;100.00
11314;BME280;5712;48.858;9.206;2023-03-30T08:21:23;97871.00;;;12.06;100.00
11314;BME280;5712;48.858;9.206;2023-03-30T08:23:51;97875.69;;;12.03;100.00
11314;BME280;5712;48.858;9.206;2023-03-30T08:26:19;97881.22;;;12.00;100.00
11314;BME280;5712;48.858;9.206;2023-03-30T08:28:45;97878.69;;;11.98;100.00
11314;BME280;5712;48.858;9.206;2023-03-30T08:31:12;97885.06;;;11.96;100.00
11314;BME280;5712;48.858;9.206;2023-03-30T08:33:39;97873.78;;;11.94;100.00
11314;BME280;5712;48.858;9.206;2023-03-30T08:36:06;97865.13;;;11.92;100.00
11314;BME280;5712;48.858;9.206;2023-03-30T08:38:32;97846.78;;;11.89;100.00
11314;BME280;5712;48.858;9.206;2023-03-30T08:40:59;97842.47;;;11.88;100.00
11314;BME280;5712;48.858;9.206;2023-03-30T08:43:49;97797.47;;;11.88;100.00
11314;BME280;5712;48.858;9.206;2023-03-30T08:46:18;97791.91;;;11.91;100.00
11314;BME280;5712;48.858;9.206;2023-03-30T08:48:46;97785.19;;;11.98;100.00
11314;BME280;5712;48.858;9.206;2023-03-30T08:51:19;97812.09;;;12.03;100.00
11314;BME280;5712;48.858;9.206;2023-03-30T08:53:49;97801.78;;;12.00;100.00
11314;BME280;5712;48.858;9.206;2023-03-30T08:56:20;97799.34;;;11.97;100.00
11314;BME280;5712;48.858;9.206;2023-03-30T08:58:55;97786.75;;;12.00;100.00
11314;BME280;5712;48.858;9.206;2023-03-30T09:01:27;97786.59;;;11.91;100.00
11314;BME280;5712;48.858;9.206;2023-03-30T09:04:05;97785.41;;;11.84;100.00
11314;BME280;5712;48.858;9.206;2023-03-30T09:06:51;97789.28;;;11.80;100.00
11314;BME280;5712;48.858;9.206;2023-03-30T09:09:20;97787.34;;;11.82;100.00
11314;BME280;5712;48.858;9.206;2023-03-30T09:11:51;97776.28;;;11.88;100.00
11314;BME280;5712;48.858;9.206;2023-03-30T09:14:26;97778.91;;;11.88;100.00
11314;BME280;5712;48.858;9.206;2023-03-30T09:17:00;97794.81;;;11.88;100.00
11314;BME280;5712;48.858;9.206;2023-03-30T09:19:32;97794.81;;;11.88;100.00
11314;BME280;5712;48.858;9.206;2023-03-30T09:22:02;97796.84;;;11.95;100.00
11314;BME280;5712;48.858;9.206;2023-03-30T09:24:30;97786.47;;;12.03;100.00
11314;BME280;5712;48.858;9.206;2023-03-30T09:26:59;97798.03;;;12.02;100.00
11314;BME280;5712;48.858;9.206;2023-03-30T09:29:31;97800.31;;;12.07;100.00
11314;BME280;5712;48.858;9.206;2023-03-30T09:32:02;97794.03;;;12.19;100.00
11314;BME280;5712;48.858;9.206;2023-03-30T09:34:35;97784.88;;;12.23;100.00
11314;BME280;5712;48.858;9.206;2023-03-30T09:37:09;97785.38;;;12.17;100.00
11314;BME280;5712;48.858;9.206;2023-03-30T09:39:37;97794.50;;;12.24;100.00
11314;BME280;5712;48.858;9.206;2023-03-30T09:42:14;97814.22;;;12.31;100.00
11314;BME280;5712;48.858;9.206;2023-03-30T09:44:47;97816.97;;;12.40;100.00
11314;BME280;5712;48.858;9.206;2023-03-30T09:47:22;97823.22;;;12.50;100.00
11314;BME280;5712;48.858;9.206;2023-03-30T09:49:56;97831.28;;;12.49;100.00
11314;BME280;5712;48.858;9.206;2023-03-30T09:52:26;97827.66;;;12.50;100.00
11314;BME280;5712;48.858;9.206;2023-03-30T09:54:52;97837.19;;;12.52;100.00
11314;BME280;5712;48.858;9.206;2023-03-30T09:57:25;97839.44;;;12.57;100.00
11314;BME280;5712;48.858;9.206;2023-03-30T09:59:54;97838.47;;;12.58;100.00
11314;BME280;5712;48.858;9.206;2023-03-30T10:02:22;97828.34;;;12.63;100.00
11314;BME280;5712;48.858;9.206;2023-03-30T10:05:00;97838.94;;;12.63;100.00
11314;BME280;5712;48.858;9.206;2023-03-30T10:07:30;97846.44;;;12.58;100.00
11314;BME280;5712;48.858;9.206;2023-03-30T10:09:58;97832.97;;;12.50;100.00
11314;BME280;5712;48.858;9.206;2023-03-30T10:12:27;97828.75;;;12.47;100.00
11314;BME280;5712;48.858;9.206;2023-03-30T10:14:59;97829.03;;;12.44;100.00
11314;BME280;5712;48.858;9.206;2023-03-30T10:17:27;97829.41;;;12.40;100.00
11314;BME280;5712;48.858;9.206;2023-03-30T10:20:14;97822.41;;;12.39;100.00
11314;BME280;5712;48.858;9.206;2023-03-30T10:22:48;97815.03;;;12.42;100.00
11314;BME280;5712;48.858;9.206;2023-03-30T10:25:18;97820.41;;;12.52;100.00
11314;BME280;5712;48.858;9.206;2023-03-30T10:27:45;97820.41;;;12.52;100.00
11314;BME280;5712;48.858;9.206;2023-03-30T10:30:18;97804.53;;;12.52;100.00
11314;BME280;5712;48.858;9.206;2023-03-30T10:32:48;97801.16;;;12.50;100.00
11314;BME280;5712;48.858;9.206;2023-03-30T10:35:18;97810.56;;;12.54;100.00
11314;BME280;5712;48.858;9.206;2023-03-30T10:37:47;97799.19;;;12.63;100.00
11314;BME280;5712;48.858;9.206;2023-03-30T10:40:17;97789.50;;;12.73;100.00
11314;BME280;5712;48.858;9.206;2023-03-30T10:42:46;97800.31;;;12.81;100.00
11314;BME280;5712;48.858;9.206;2023-03-30T10:45:19;97791.13;;;12.96;100.00
11314;BME280;5712;48.858;9.206;2023-03-30T10:47:54;97788.31;;;13.18;100.00
11314;BME280;5712;48.858;9.206;2023-03-30T10:50:27;97781.28;;;13.28;100.00
11314;BME280;5712;48.858;9.206;2023-03-30T10:53:11;97782.94;;;13.29;100.00
11314;BME280;5712;48.858;9.206;2023-03-30T10:55:49;97776.66;;;13.30;100.00
11314;BME280;5712;48.858;9.206;2023-03-30T10:58:30;97768.44;;;13.33;100.00
11314;BME280;5712;48.858;9.206;2023-03-30T11:01:09;97770.31;;;13.42;100.00
11314;BME280;5712;48.858;9.206;2023-03-30T11:03:38;97759.16;;;13.48;100.00
11314;BME280;5712;48.858;9.206;2023-03-30T11:06:10;97769.97;;;13.56;100.00
11314;BME280;5712;48.858;9.206;2023-03-30T11:08:41;97766.25;;;13.68;100.00
11314;BME280;5712;48.858;9.206;2023-03-30T11:11:13;97780.00;;;13.92;100.00
11314;BME280;5712;48.858;9.206;2023-03-30T11:13:47;97782.19;;;14.17;100.00
11314;BME280;5712;48.858;9.206;2023-03-30T11:16:19;97776.78;;;14.47;100.00
11314;BME280;5712;48.858;9.206;2023-03-30T11:18:51;97788.03;;;14.79;100.00
11314;BME280;5712;48.858;9.206;2023-03-30T11:21:23;97786.91;;;14.91;100.00
11314;BME280;5712;48.858;9.206;2023-03-30T11:23:53;97799.91;;;15.03;100.00
11314;BME280;5712;48.858;9.206;2023-03-30T11:26:23;97783.81;;;15.05;99.46
11314;BME280;5712;48.858;9.206;2023-03-30T11:28:59;97774.84;;;15.06;95.83
11314;BME280;5712;48.858;9.206;2023-03-30T11:31:38;97770.38;;;15.06;95.30
11314;BME280;5712;48.858;9.206;2023-03-30T11:34:13;97755.53;;;15.04;91.16
11314;BME280;5712;48.858;9.206;2023-03-30T11:36:44;97777.09;;;15.01;91.57
11314;BME280;5712;48.858;9.206;2023-03-30T11:39:14;97782.69;;;15.07;92.44
11314;BME280;5712;48.858;9.206;2023-03-30T11:41:47;97794.84;;;15.29;94.91
11314;BME280;5712;48.858;9.206;2023-03-30T11:44:14;97803.41;;;15.42;97.03
11314;BME280;5712;48.858;9.206;2023-03-30T11:46:46;97801.59;;;15.42;98.03
11314;BME280;5712;48.858;9.206;2023-03-30T11:49:27;97796.53;;;15.39;96.87
11314;BME280;5712;48.858;9.206;2023-03-30T11:52:16;97798.34;;;15.48;96.67
11314;BME280;5712;48.858;9.206;2023-03-30T11:55:00;97804.50;;;15.49;98.36
11314;BME280;5712;48.858;9.206;2023-03-30T11:57:36;97806.88;;;15.52;97.29
11314;BME280;5712;48.858;9.206;2023-03-30T12:00:24;97789.03;;;15.62;94.34
11314;BME280;5712;48.858;9.206;2023-03-30T12:03:00;97795.00;;;15.83;92.76
11314;BME280;5712;48.858;9.206;2023-03-30T12:05:33;97781.69;;;15.83;91.53
11314;BME280;5712;48.858;9.206;2023-03-30T12:08:10;97797.66;;;15.83;94.69
11314;BME280;5712;48.858;9.206;2023-03-30T12:10:40;97808.59;;;15.80;96.17
11314;BME280;5712;48.858;9.206;2023-03-30T12:13:10;97792.38;;;15.73;94.87
11314;BME280;5712;48.858;9.206;2023-03-30T12:15:42;97773.44;;;15.67;92.02
11314;BME280;5712;48.858;9.206;2023-03-30T12:18:23;97761.13;;;15.66;89.01
11314;BME280;5712;48.858;9.206;2023-03-30T12:20:54;97764.09;;;15.63;88.97
11314;BME280;5712;48.858;9.206;2023-03-30T12:23:33;97761.81;;;15.68;87.80
11314;BME280;5712;48.858;9.206;2023-03-30T12:26:09;97772.19;;;15.71;88.27
11314;BME280;5712;48.858;9.206;2023-03-30T12:28:45;97759.94;;;15.78;90.78
11314;BME280;5712;48.858;9.206;2023-03-30T12:31:12;97747.22;;;15.98;87.94
11314;BME280;5712;48.858;9.206;2023-03-30T12:33:48;97728.16;;;16.20;89.44
11314;BME280;5712;48.858;9.206;2023-03-30T12:36:24;97731.69;;;16.38;84.51
11314;BME280;5712;48.858;9.206;2023-03-30T12:38:59;97726.53;;;16.54;85.49
11314;BME280;5712;48.858;9.206;2023-03-30T12:41:38;97724.78;;;16.63;87.69
11314;BME280;5712;48.858;9.206;2023-03-30T12:44:39;97717.94;;;16.86;83.64
11314;BME280;5712;48.858;9.206;2023-03-30T12:47:29;97694.88;;;17.02;80.09
11314;BME280;5712;48.858;9.206;2023-03-30T12:50:25;97695.00;;;17.18;78.61
11314;BME280;5712;48.858;9.206;2023-03-30T12:53:07;97689.66;;;17.18;76.94
11314;BME280;5712;48.858;9.206;2023-03-30T12:55:43;97678.19;;;17.26;73.70
11314;BME280;5712;48.858;9.206;2023-03-30T12:58:42;97667.13;;;16.95;71.94
11314;BME280;5712;48.858;9.206;2023-03-30T13:01:25;97684.78;;;16.88;75.19
11314;BME280;5712;48.858;9.206;2023-03-30T13:03:58;97663.66;;;16.95;73.04
11314;BME280;5712;48.858;9.206;2023-03-30T13:06:30;97674.63;;;16.66;72.57
11314;BME280;5712;48.858;9.206;2023-03-30T13:09:14;97680.47;;;16.70;74.12
11314;BME280;5712;48.858;9.206;2023-03-30T13:12:05;97671.44;;;16.88;75.17
11314;BME280;5712;48.858;9.206;2023-03-30T13:14:43;97658.94;;;16.71;72.14
11314;BME280;5712;48.858;9.206;2023-03-30T13:17:14;97671.31;;;16.72;72.92
11314;BME280;5712;48.858;9.206;2023-03-30T13:19:46;97663.13;;;16.48;72.30
11314;BME280;5712;48.858;9.206;2023-03-30T13:22:31;97657.94;;;16.47;71.71
11314;BME280;5712;48.858;9.206;2023-03-30T13:25:00;97653.41;;;16.65;72.34
11314;BME280;5712;48.858;9.206;2023-03-30T13:27:30;97609.38;;;16.86;65.75
11314;BME280;5712;48.858;9.206;2023-03-30T13:30:02;97606.44;;;16.97;64.29
11314;BME280;5712;48.858;9.206;2023-03-30T13:32:53;97605.41;;;16.90;64.67